createdAt,value
2022-11-12T00:00:16.443Z,10.40
2022-11-12T00:01:52.479Z,10.50
2022-11-12T00:03:33.401Z,10.70
2022-11-12T00:05:14.764Z,10.70
2022-11-12T00:06:56.084Z,10.70
2022-11-12T00:08:31.597Z,10.80
2022-11-12T00:10:09.353Z,10.80
2022-11-12T00:11:45.153Z,10.70
2022-11-12T00:13:22.563Z,10.80
2022-11-12T00:14:57.165Z,10.80
2022-11-12T00:16:36.389Z,10.70
2022-11-12T00:18:11.813Z,10.70
2022-11-12T00:19:47.534Z,10.70
2022-11-12T00:21:28.079Z,10.80
2022-11-12T00:23:04.044Z,10.80
2022-11-12T00:24:41.777Z,10.80
2022-11-12T00:26:17.829Z,10.90
2022-11-12T00:27:53.265Z,11.10
2022-11-12T00:29:31.171Z,11.00
2022-11-12T00:31:12.393Z,11.00
2022-11-12T00:32:48.052Z,11.10
2022-11-12T00:34:23.660Z,11.10
2022-11-12T00:35:59.845Z,11.10
2022-11-12T00:37:35.266Z,11.10
2022-11-12T00:39:10.442Z,11.00
2022-11-12T00:40:46.528Z,11.00
2022-11-12T00:42:24.269Z,11.10
2022-11-12T00:43:59.681Z,11.20
2022-11-12T00:45:36.707Z,11.20
2022-11-12T00:47:18.376Z,11.20
2022-11-12T00:48:55.090Z,11.20
2022-11-12T00:50:30.938Z,11.20
2022-11-12T00:52:06.652Z,11.10
2022-11-12T00:53:43.189Z,11.10
2022-11-12T00:55:20.487Z,11.20
2022-11-12T00:56:56.998Z,11.20
2022-11-12T00:58:34.985Z,11.20
2022-11-12T01:00:16.663Z,11.20
2022-11-12T01:01:54.734Z,11.20
2022-11-12T01:03:35.718Z,11.30
2022-11-12T01:05:16.900Z,11.40
2022-11-12T01:06:57.641Z,11.40
2022-11-12T01:08:34.412Z,11.50
2022-11-12T01:10:11.600Z,11.60
2022-11-12T01:11:47.688Z,11.70
2022-11-12T01:13:22.613Z,11.80
2022-11-12T01:15:01.582Z,11.60
2022-11-12T01:16:40.100Z,11.70
2022-11-12T01:18:16.594Z,11.70
2022-11-12T01:19:52.301Z,11.60
2022-11-12T01:21:38.846Z,11.60
2022-11-12T01:23:14.398Z,11.60
2022-11-12T01:24:51.730Z,11.70
2022-11-12T01:26:27.997Z,11.70
2022-11-12T01:28:04.038Z,11.80
2022-11-12T01:29:39.598Z,11.80
2022-11-12T01:31:23.858Z,11.80
2022-11-12T01:32:59.168Z,11.80
2022-11-12T01:34:35.728Z,11.80
2022-11-12T01:36:12.501Z,11.80
2022-11-12T01:37:48.170Z,11.70
2022-11-12T01:39:23.684Z,11.70
2022-11-12T01:40:59.344Z,11.70
2022-11-12T01:42:36.933Z,11.70
2022-11-12T01:44:18.098Z,11.70
2022-11-12T01:45:54.449Z,11.70
2022-11-12T01:47:34.458Z,11.70
2022-11-12T01:49:17.362Z,11.80
2022-11-12T01:50:56.993Z,11.80
2022-11-12T01:52:36.719Z,11.70
2022-11-12T01:54:16.999Z,11.70
2022-11-12T01:55:53.556Z,11.70
2022-11-12T01:57:35.422Z,11.70
2022-11-12T01:59:16.642Z,11.60
2022-11-12T02:00:52.655Z,11.70
2022-11-12T02:02:28.585Z,11.80
2022-11-12T02:04:09.483Z,11.70
2022-11-12T02:05:56.634Z,11.80
2022-11-12T02:07:34.326Z,11.70
2022-11-12T02:09:10.622Z,11.80
2022-11-12T02:10:46.106Z,11.90
2022-11-12T02:12:21.891Z,11.90
2022-11-12T02:13:57.857Z,11.90
2022-11-12T02:15:34.257Z,11.80
2022-11-12T02:17:10.374Z,11.80
2022-11-12T02:18:45.776Z,11.70
2022-11-12T02:20:21.587Z,11.60
2022-11-12T02:21:58.726Z,11.70
2022-11-12T02:23:34.465Z,11.70
2022-11-12T02:25:15.671Z,11.60
2022-11-12T02:26:55.384Z,11.50
2022-11-12T02:28:32.610Z,11.60
2022-11-12T02:30:10.922Z,11.70
2022-11-12T02:31:46.823Z,11.70
2022-11-12T02:33:21.947Z,11.60
2022-11-12T02:34:59.051Z,11.60
2022-11-12T02:36:35.316Z,11.70
2022-11-12T02:38:12.060Z,11.60
2022-11-12T02:39:47.637Z,11.60
2022-11-12T02:41:28.143Z,11.60
2022-11-12T02:43:05.238Z,11.70
2022-11-12T02:44:41.564Z,11.60
2022-11-12T02:46:17.330Z,11.60
2022-11-12T02:47:53.243Z,11.70
2022-11-12T02:49:28.934Z,11.70
2022-11-12T02:51:04.736Z,11.70
2022-11-12T02:52:40.070Z,11.60
2022-11-12T02:54:16.512Z,11.60
2022-11-12T02:55:53.118Z,11.50
2022-11-12T02:57:13.035Z,11.60
2022-11-12T02:58:49.132Z,11.50
2022-11-12T03:00:24.245Z,11.50
2022-11-12T03:01:59.959Z,11.50
2022-11-12T03:03:43.060Z,11.40
2022-11-12T03:05:23.711Z,11.50
2022-11-12T03:07:04.593Z,11.50
2022-11-12T03:08:39.824Z,11.50
2022-11-12T03:10:16.667Z,11.60
2022-11-12T03:11:51.669Z,11.60
2022-11-12T03:13:26.923Z,11.60
2022-11-12T03:15:05.166Z,11.60
2022-11-12T03:16:40.792Z,11.60
2022-11-12T03:18:16.681Z,11.60
2022-11-12T03:19:51.393Z,11.60
2022-11-12T03:21:32.130Z,11.60
2022-11-12T03:23:10.470Z,11.60
2022-11-12T03:24:46.995Z,11.60
2022-11-12T03:26:24.713Z,11.60
2022-11-12T03:28:02.184Z,11.60
2022-11-12T03:29:37.555Z,11.50
2022-11-12T03:31:18.535Z,11.50
2022-11-12T03:32:53.521Z,11.50
2022-11-12T03:34:29.643Z,11.50
2022-11-12T03:36:05.836Z,11.50
2022-11-12T03:37:42.097Z,11.60
2022-11-12T03:39:17.762Z,11.60
2022-11-12T03:40:53.716Z,11.50
2022-11-12T03:42:31.467Z,11.50
2022-11-12T03:44:07.165Z,11.50
2022-11-12T03:45:42.810Z,11.40
2022-11-12T03:47:18.233Z,11.40
2022-11-12T03:48:53.901Z,11.20
2022-11-12T03:50:30.365Z,11.10
2022-11-12T03:52:06.288Z,11.10
2022-11-12T03:53:41.837Z,11.20
2022-11-12T03:55:21.087Z,11.20
2022-11-12T03:56:56.087Z,11.30
2022-11-12T03:58:32.885Z,11.30
2022-11-12T04:00:11.600Z,11.30
2022-11-12T04:01:46.478Z,11.30
2022-11-12T04:03:27.369Z,11.20
2022-11-12T04:05:10.165Z,11.10
2022-11-12T04:06:50.732Z,10.90
2022-11-12T04:08:26.965Z,10.90
2022-11-12T04:10:04.110Z,10.80
2022-11-12T04:11:39.481Z,10.70
2022-11-12T04:13:15.151Z,10.80
2022-11-12T04:14:52.769Z,10.90
2022-11-12T04:16:28.714Z,10.80
2022-11-12T04:18:04.895Z,10.80
2022-11-12T04:19:39.892Z,10.90
2022-11-12T04:21:20.564Z,10.90
2022-11-12T04:22:56.244Z,10.80
2022-11-12T04:24:34.340Z,10.70
2022-11-12T04:26:09.738Z,10.60
2022-11-12T04:27:44.670Z,10.60
2022-11-12T04:29:20.286Z,10.60
2022-11-12T04:30:57.254Z,10.50
2022-11-12T04:32:36.292Z,10.40
2022-11-12T04:34:11.668Z,10.40
2022-11-12T04:35:50.683Z,10.50
2022-11-12T04:37:29.626Z,10.50
2022-11-12T04:39:05.748Z,10.50
2022-11-12T04:40:41.903Z,10.60
2022-11-12T04:42:17.172Z,10.50
2022-11-12T04:43:52.972Z,10.50
2022-11-12T04:45:30.017Z,10.50
2022-11-12T04:47:06.921Z,10.60
2022-11-12T04:48:41.772Z,10.50
2022-11-12T04:50:19.028Z,10.50
2022-11-12T04:51:54.360Z,10.50
2022-11-12T04:53:30.930Z,10.50
2022-11-12T04:55:08.221Z,10.40
2022-11-12T04:56:44.202Z,10.40
2022-11-12T04:58:19.408Z,10.30
2022-11-12T04:59:55.421Z,10.20
2022-11-12T05:01:35.465Z,10.20
2022-11-12T05:03:18.266Z,10.20
2022-11-12T05:04:58.958Z,10.20
2022-11-12T05:06:40.245Z,10.10
2022-11-12T05:08:16.301Z,10.00
2022-11-12T05:09:52.732Z,10.10
2022-11-12T05:11:33.297Z,10.20
2022-11-12T05:13:09.603Z,10.20
2022-11-12T05:14:44.988Z,10.20
2022-11-12T05:16:22.327Z,10.10
2022-11-12T05:17:58.131Z,10.10
2022-11-12T05:19:35.646Z,10.10
2022-11-12T05:21:16.447Z,10.00
2022-11-12T05:23:05.646Z,10.00
2022-11-12T05:24:43.682Z,9.90
2022-11-12T05:26:19.878Z,10.00
2022-11-12T05:27:55.872Z,10.00
2022-11-12T05:29:31.897Z,10.00
2022-11-12T05:31:11.984Z,10.00
2022-11-12T05:32:47.733Z,10.10
2022-11-12T05:34:24.081Z,10.10
2022-11-12T05:36:01.682Z,10.00
2022-11-12T05:37:37.260Z,9.90
2022-11-12T05:39:13.165Z,9.80
2022-11-12T05:40:48.547Z,9.80
2022-11-12T05:42:26.136Z,9.80
2022-11-12T05:44:02.386Z,9.80
2022-11-12T05:45:43.058Z,9.80
2022-11-12T05:47:18.829Z,9.90
2022-11-12T05:48:55.489Z,9.90
2022-11-12T05:50:39.937Z,9.90
2022-11-12T05:52:27.444Z,10.00
2022-11-12T05:54:03.492Z,9.90
2022-11-12T05:55:40.563Z,9.90
2022-11-12T05:57:16.322Z,9.80
2022-11-12T05:58:51.283Z,9.80
2022-11-12T06:00:26.800Z,9.80
2022-11-12T06:02:02.374Z,9.80
2022-11-12T06:03:43.176Z,9.80
2022-11-12T06:05:23.920Z,9.80
2022-11-12T06:07:04.569Z,9.70
2022-11-12T06:08:42.109Z,9.50
2022-11-12T06:10:20.709Z,9.60
2022-11-12T06:11:57.055Z,9.60
2022-11-12T06:13:33.409Z,9.60
2022-11-12T06:15:09.466Z,9.50
2022-11-12T06:16:45.088Z,9.40
2022-11-12T06:18:20.753Z,9.20
2022-11-12T06:19:57.560Z,9.10
2022-11-12T06:21:34.372Z,9.00
2022-11-12T06:23:09.869Z,9.00
2022-11-12T06:24:47.674Z,8.90
2022-11-12T06:26:24.315Z,8.90
2022-11-12T06:27:59.112Z,8.90
2022-11-12T06:29:34.474Z,8.90
2022-11-12T06:31:16.200Z,8.80
2022-11-12T06:32:51.893Z,8.80
2022-11-12T06:34:28.028Z,8.80
2022-11-12T06:36:06.634Z,8.90
2022-11-12T06:37:42.567Z,8.90
2022-11-12T06:39:18.324Z,8.80
2022-11-12T06:40:57.131Z,8.80
2022-11-12T06:42:33.801Z,9.00
2022-11-12T06:44:09.862Z,9.00
2022-11-12T06:45:47.264Z,9.00
2022-11-12T06:47:23.903Z,8.90
2022-11-12T06:49:00.100Z,8.90
2022-11-12T06:50:35.180Z,8.80
2022-11-12T06:52:16.261Z,8.90
2022-11-12T06:53:53.310Z,8.90
2022-11-12T06:55:29.966Z,8.90
2022-11-12T06:57:07.035Z,8.90
2022-11-12T06:58:43.493Z,8.90
2022-11-12T07:00:20.112Z,9.00
2022-11-12T07:01:56.707Z,9.00
2022-11-12T07:03:39.235Z,8.90
2022-11-12T07:05:20.277Z,8.90
2022-11-12T07:07:01.145Z,8.90
2022-11-12T07:08:37.498Z,8.90
2022-11-12T07:10:13.419Z,8.90
2022-11-12T07:11:49.894Z,9.10
2022-11-12T07:13:27.149Z,9.10
2022-11-12T07:15:02.751Z,9.10
2022-11-12T07:16:38.149Z,9.20
2022-11-12T07:18:13.897Z,9.20
2022-11-12T07:19:49.593Z,9.30
2022-11-12T07:21:30.774Z,9.40
2022-11-12T07:23:06.163Z,9.20
2022-11-12T07:24:41.650Z,9.10
2022-11-12T07:26:19.913Z,9.10
2022-11-12T07:27:54.772Z,9.10
2022-11-12T07:29:47.033Z,9.10
2022-11-12T07:31:28.462Z,9.00
2022-11-12T07:33:04.925Z,9.00
2022-11-12T07:34:40.221Z,9.00
2022-11-12T07:36:18.425Z,9.10
2022-11-12T07:37:59.436Z,9.20
2022-11-12T07:39:35.435Z,9.20
2022-11-12T07:41:19.140Z,9.20
2022-11-12T07:42:54.827Z,9.20
2022-11-12T07:44:31.485Z,9.30
2022-11-12T07:46:11.124Z,9.20
2022-11-12T07:47:46.831Z,9.10
2022-11-12T07:49:22.906Z,9.10
2022-11-12T07:51:02.271Z,9.20
2022-11-12T07:52:37.130Z,9.20
2022-11-12T07:54:12.213Z,9.20
2022-11-12T07:55:54.583Z,9.10
2022-11-12T07:57:32.276Z,9.10
2022-11-12T07:59:07.457Z,9.20
2022-11-12T08:00:44.397Z,9.20
2022-11-12T08:02:19.623Z,9.30
2022-11-12T08:04:03.126Z,9.30
2022-11-12T08:05:44.291Z,9.30
2022-11-12T08:07:20.104Z,9.20
2022-11-12T08:08:57.538Z,9.30
2022-11-12T08:10:35.059Z,9.40
2022-11-12T08:12:10.782Z,9.40
2022-11-12T08:13:47.774Z,9.40
2022-11-12T08:15:24.346Z,9.40
2022-11-12T08:17:01.233Z,9.50
2022-11-12T08:18:37.634Z,9.50
2022-11-12T08:20:14.647Z,9.50
2022-11-12T08:21:52.634Z,9.60
2022-11-12T08:23:28.862Z,9.60
2022-11-12T08:25:05.366Z,9.70
2022-11-12T08:26:43.296Z,9.70
2022-11-12T08:28:17.913Z,9.70
2022-11-12T08:29:52.998Z,9.80
2022-11-12T08:31:34.553Z,9.90
2022-11-12T08:33:10.896Z,9.90
2022-11-12T08:34:46.192Z,9.90
2022-11-12T08:36:21.724Z,10.00
2022-11-12T08:38:02.123Z,10.10
2022-11-12T08:39:37.287Z,10.10
2022-11-12T08:41:17.686Z,10.10
2022-11-12T08:43:01.105Z,10.10
2022-11-12T08:44:36.408Z,10.20
2022-11-12T08:46:11.964Z,10.30
2022-11-12T08:47:46.916Z,10.30
2022-11-12T08:49:23.790Z,10.30
2022-11-12T08:51:02.077Z,10.30
2022-11-12T08:52:37.874Z,10.40
2022-11-12T08:54:14.119Z,10.40
2022-11-12T08:55:54.680Z,10.50
2022-11-12T08:57:30.587Z,10.60
2022-11-12T08:59:07.545Z,10.60
2022-11-12T09:00:44.136Z,10.70
2022-11-12T09:02:21.154Z,10.60
2022-11-12T09:04:01.915Z,10.70
2022-11-12T09:05:44.252Z,10.80
2022-11-12T09:07:48.031Z,10.90
2022-11-12T09:09:16.749Z,10.90
2022-11-12T09:10:52.658Z,10.90
2022-11-12T09:12:27.850Z,11.00
2022-11-12T09:14:04.045Z,11.10
2022-11-12T09:15:39.172Z,11.20
2022-11-12T09:17:14.649Z,11.20
2022-11-12T09:18:49.526Z,11.20
2022-11-12T09:20:26.610Z,11.30
2022-11-12T09:22:05.001Z,11.30
2022-11-12T09:23:40.388Z,11.40
2022-11-12T09:25:16.181Z,11.50
2022-11-12T09:26:53.348Z,11.60
2022-11-12T09:28:29.312Z,11.60
2022-11-12T09:30:06.677Z,11.70
2022-11-12T09:31:42.898Z,11.70
2022-11-12T09:33:22.676Z,11.80
2022-11-12T09:34:59.783Z,11.90
2022-11-12T09:36:39.636Z,11.90
2022-11-12T09:38:17.831Z,12.00
2022-11-12T09:39:53.333Z,12.00
2022-11-12T09:41:36.449Z,12.00
2022-11-12T09:43:20.818Z,12.10
2022-11-12T09:45:00.514Z,12.10
2022-11-12T09:46:43.360Z,12.20
2022-11-12T09:48:25.082Z,12.20
2022-11-12T09:50:18.557Z,12.30
2022-11-12T09:51:57.016Z,12.40
2022-11-12T09:53:44.090Z,12.40
2022-11-12T09:55:28.656Z,12.50
2022-11-12T09:57:03.998Z,12.60
2022-11-12T09:58:43.341Z,12.60
2022-11-12T10:00:20.951Z,12.60
2022-11-12T10:02:05.971Z,12.80
2022-11-12T10:03:58.654Z,12.80
2022-11-12T10:05:48.320Z,12.80
2022-11-12T10:07:43.386Z,12.90
2022-11-12T10:09:25.813Z,12.90
2022-11-12T10:11:24.054Z,12.90
2022-11-12T10:13:14.883Z,13.00
2022-11-12T10:15:13.404Z,13.00
2022-11-12T10:16:57.793Z,13.10
2022-11-12T10:18:51.445Z,13.20
2022-11-12T10:20:38.652Z,13.10
2022-11-12T10:22:40.682Z,13.10
2022-11-12T10:24:16.418Z,13.10
2022-11-12T10:25:58.241Z,13.10
2022-11-12T10:27:38.995Z,13.30
2022-11-12T10:29:25.666Z,13.30
2022-11-12T10:31:10.671Z,13.40
2022-11-12T10:32:47.011Z,13.40
2022-11-12T10:34:24.011Z,13.50
2022-11-12T10:36:17.014Z,13.50
2022-11-12T10:37:58.791Z,13.60
2022-11-12T10:39:36.404Z,13.70
2022-11-12T10:41:25.668Z,13.70
2022-11-12T10:43:04.603Z,13.80
2022-11-12T10:44:40.972Z,13.80
2022-11-12T10:46:21.231Z,13.80
2022-11-12T10:47:56.547Z,13.80
2022-11-12T10:49:31.635Z,13.80
2022-11-12T10:51:23.274Z,13.90
2022-11-12T10:53:04.796Z,13.90
2022-11-12T10:54:40.371Z,13.90
2022-11-12T10:56:27.682Z,14.00
2022-11-12T10:58:17.617Z,14.00
2022-11-12T11:00:08.724Z,14.10
2022-11-12T11:01:53.755Z,14.20
2022-11-12T11:03:36.835Z,14.30
2022-11-12T11:05:34.128Z,14.30
2022-11-12T11:07:23.009Z,14.40
2022-11-12T11:09:16.686Z,14.40
2022-11-12T11:11:25.928Z,14.50
2022-11-12T11:13:21.127Z,14.50
2022-11-12T11:15:18.047Z,14.50
2022-11-12T11:16:58.000Z,14.60
2022-11-12T11:18:35.960Z,14.70
2022-11-12T11:20:21.513Z,14.70
2022-11-12T11:22:30.082Z,14.80
2022-11-12T11:24:34.656Z,14.80
2022-11-12T11:26:32.811Z,14.90
2022-11-12T11:28:21.898Z,14.90
2022-11-12T11:30:08.097Z,15.00
2022-11-12T11:31:51.146Z,15.00
2022-11-12T11:33:40.482Z,15.00
2022-11-12T11:35:27.153Z,15.10
2022-11-12T11:37:19.810Z,15.10
2022-11-12T11:39:01.270Z,15.10
2022-11-12T11:40:42.223Z,15.10
2022-11-12T11:42:43.237Z,15.10
2022-11-12T11:44:34.854Z,15.10
2022-11-12T11:46:27.023Z,15.20
2022-11-12T11:48:12.774Z,15.30
2022-11-12T11:50:22.281Z,15.40
2022-11-12T11:52:07.795Z,15.40
2022-11-12T11:53:56.235Z,15.50
2022-11-12T11:55:49.389Z,15.50
2022-11-12T11:57:33.163Z,15.60
2022-11-12T11:59:30.610Z,15.80
2022-11-12T12:01:20.370Z,15.90
2022-11-12T12:03:18.035Z,16.00
2022-11-12T12:05:20.314Z,16.10
2022-11-12T12:07:07.995Z,16.20
2022-11-12T12:09:03.273Z,16.40
2022-11-12T12:11:10.981Z,16.50
2022-11-12T12:13:00.347Z,16.60
2022-11-12T12:14:50.414Z,16.80
2022-11-12T12:16:43.871Z,17.00
2022-11-12T12:18:34.478Z,17.00
2022-11-12T12:20:21.188Z,17.20
2022-11-12T12:21:59.077Z,17.40
2022-11-12T12:23:39.791Z,17.60
2022-11-12T12:25:21.693Z,17.80
2022-11-12T12:27:02.544Z,17.70
2022-11-12T12:28:45.707Z,17.60
2022-11-12T12:30:23.054Z,18.00
2022-11-12T12:32:06.810Z,18.10
2022-11-12T12:33:51.412Z,18.30
2022-11-12T12:35:31.524Z,18.10
2022-11-12T12:37:21.092Z,18.10
2022-11-12T12:39:13.612Z,18.30
2022-11-12T12:40:55.402Z,18.20
2022-11-12T12:42:40.244Z,18.60
2022-11-12T12:44:16.509Z,18.60
2022-11-12T12:45:51.183Z,18.60
2022-11-12T12:47:29.322Z,18.70
2022-11-12T12:49:06.907Z,18.90
2022-11-12T12:50:43.231Z,18.60
2022-11-12T12:52:19.674Z,18.70
2022-11-12T12:53:55.032Z,18.70
2022-11-12T12:55:38.711Z,18.90
2022-11-12T12:57:37.227Z,19.10
2022-11-12T12:59:24.387Z,18.80
2022-11-12T13:01:04.816Z,18.70
2022-11-12T13:02:40.934Z,18.60
2022-11-12T13:04:53.577Z,18.70
2022-11-12T13:06:35.535Z,18.90
2022-11-12T13:08:01.021Z,19.20
2022-11-12T13:09:36.140Z,19.10
2022-11-12T13:11:54.126Z,19.10
2022-11-12T13:13:35.341Z,19.40
2022-11-12T13:15:16.350Z,19.20
2022-11-12T13:17:00.549Z,19.00
2022-11-12T13:19:01.401Z,19.00
2022-11-12T13:20:41.643Z,19.00
2022-11-12T13:22:50.506Z,19.30
2022-11-12T13:25:02.577Z,19.00
2022-11-12T13:26:54.286Z,19.20
2022-11-12T13:28:31.769Z,19.20
2022-11-12T13:30:30.943Z,19.40
2022-11-12T13:32:32.774Z,19.50
2022-11-12T13:34:29.010Z,19.40
2022-11-12T13:36:27.933Z,19.60
2022-11-12T13:38:13.060Z,19.50
2022-11-12T13:39:48.715Z,19.30
2022-11-12T13:41:30.377Z,19.30
2022-11-12T13:43:31.007Z,19.20
2022-11-12T13:45:10.520Z,19.20
2022-11-12T13:46:50.280Z,19.10
2022-11-12T13:48:33.599Z,19.00
2022-11-12T13:50:15.102Z,19.00
2022-11-12T13:51:51.146Z,19.10
2022-11-12T13:53:29.011Z,19.10
2022-11-12T13:55:12.740Z,19.20
2022-11-12T13:56:48.538Z,19.20
2022-11-12T13:58:30.569Z,19.10
2022-11-12T14:00:27.094Z,19.20
2022-11-12T14:02:05.230Z,19.30
2022-11-12T14:03:50.086Z,19.30
2022-11-12T14:05:33.466Z,19.20
2022-11-12T14:07:40.222Z,19.00
2022-11-12T14:09:44.342Z,19.00
2022-11-12T14:11:52.426Z,19.00
2022-11-12T14:13:52.439Z,19.00
2022-11-12T14:15:50.454Z,19.00
2022-11-12T14:17:36.673Z,19.00
2022-11-12T14:19:56.352Z,19.10
2022-11-12T14:21:35.331Z,19.10
2022-11-12T14:23:15.192Z,19.10
2022-11-12T14:25:00.487Z,19.10
2022-11-12T14:26:40.239Z,19.20
2022-11-12T14:28:36.873Z,19.00
2022-11-12T14:30:20.890Z,19.00
2022-11-12T14:32:02.100Z,19.00
2022-11-12T14:33:37.470Z,18.90
2022-11-12T14:35:34.500Z,18.70
2022-11-12T14:37:37.309Z,18.70
2022-11-12T14:39:16.948Z,18.60
2022-11-12T14:40:55.004Z,18.70
2022-11-12T14:42:32.399Z,18.70
2022-11-12T14:44:18.266Z,18.60
2022-11-12T14:45:56.222Z,18.60
2022-11-12T14:47:31.421Z,18.60
2022-11-12T14:49:18.079Z,18.50
2022-11-12T14:51:03.353Z,18.50
2022-11-12T14:52:44.874Z,18.60
2022-11-12T14:54:29.265Z,18.60
2022-11-12T14:56:07.027Z,18.90
2022-11-12T14:57:27.363Z,18.80
2022-11-12T14:59:03.912Z,18.80
2022-11-12T15:00:44.287Z,18.80
2022-11-12T15:02:46.872Z,18.60
2022-11-12T15:04:24.518Z,18.50
2022-11-12T15:06:11.599Z,18.40
2022-11-12T15:07:56.383Z,18.60
2022-11-12T15:09:36.241Z,18.30
2022-11-12T15:11:25.921Z,18.20
2022-11-12T15:13:05.359Z,18.00
2022-11-12T15:14:41.388Z,17.90
2022-11-12T15:16:22.346Z,17.80
2022-11-12T15:18:00.513Z,18.00
2022-11-12T15:19:51.468Z,17.90
2022-11-12T15:21:32.382Z,17.90
2022-11-12T15:23:17.647Z,17.90
2022-11-12T15:24:54.036Z,17.90
2022-11-12T15:26:35.597Z,17.70
2022-11-12T15:28:20.899Z,17.50
2022-11-12T15:29:42.207Z,17.30
2022-11-12T15:31:22.881Z,17.20
2022-11-12T15:33:21.034Z,17.20
2022-11-12T15:34:57.769Z,17.20
2022-11-12T15:36:33.042Z,17.10
2022-11-12T15:38:17.892Z,17.10
2022-11-12T15:39:59.236Z,17.00
2022-11-12T15:41:35.449Z,16.90
2022-11-12T15:43:16.075Z,16.90
2022-11-12T15:44:56.051Z,16.90
2022-11-12T15:46:31.828Z,16.70
2022-11-12T15:48:10.153Z,16.60
2022-11-12T15:49:50.813Z,16.70
2022-11-12T15:51:33.121Z,16.50
2022-11-12T15:53:07.371Z,16.40
2022-11-12T15:54:41.592Z,16.50
2022-11-12T15:56:20.903Z,16.50
2022-11-12T15:57:55.787Z,16.40
2022-11-12T15:59:30.726Z,16.30
2022-11-12T16:01:11.407Z,16.20
2022-11-12T16:02:51.820Z,16.10
2022-11-12T16:04:33.832Z,16.00
2022-11-12T16:06:16.792Z,16.00
2022-11-12T16:07:52.469Z,16.00
2022-11-12T16:09:28.360Z,16.10
2022-11-12T16:11:03.666Z,16.00
2022-11-12T16:12:40.748Z,16.00
2022-11-12T16:14:15.821Z,15.80
2022-11-12T16:15:52.670Z,15.80
2022-11-12T16:17:29.530Z,15.90
2022-11-12T16:19:10.022Z,15.80
2022-11-12T16:20:46.562Z,15.80
2022-11-12T16:22:21.894Z,15.80
2022-11-12T16:23:59.437Z,15.70
2022-11-12T16:25:37.741Z,15.80
2022-11-12T16:27:14.611Z,15.80
2022-11-12T16:28:51.140Z,15.80
2022-11-12T16:30:28.972Z,15.80
2022-11-12T16:32:05.125Z,15.70
2022-11-12T16:33:40.079Z,15.70
2022-11-12T16:35:16.292Z,15.60
2022-11-12T16:36:51.646Z,15.60
2022-11-12T16:38:29.968Z,15.60
2022-11-12T16:40:13.407Z,15.50
2022-11-12T16:41:50.540Z,15.60
2022-11-12T16:43:26.293Z,15.50
2022-11-12T16:45:04.191Z,15.40
2022-11-12T16:46:42.325Z,15.40
2022-11-12T16:48:21.538Z,15.30
2022-11-12T16:49:57.550Z,15.20
2022-11-12T16:51:38.414Z,15.10
2022-11-12T16:53:14.098Z,15.00
2022-11-12T16:54:50.501Z,15.00
2022-11-12T16:56:27.843Z,15.20
2022-11-12T16:58:03.696Z,15.20
2022-11-12T16:59:41.696Z,15.30
2022-11-12T17:01:25.854Z,15.30
2022-11-12T17:03:02.950Z,15.30
2022-11-12T17:04:43.830Z,15.30
2022-11-12T17:06:32.800Z,15.20
2022-11-12T17:08:09.534Z,15.10
2022-11-12T17:09:45.433Z,15.10
2022-11-12T17:11:27.310Z,15.10
2022-11-12T17:13:04.387Z,15.10
2022-11-12T17:14:40.367Z,15.20
2022-11-12T17:16:16.456Z,15.10
2022-11-12T17:17:53.463Z,15.20
2022-11-12T17:19:28.546Z,15.20
2022-11-12T17:21:12.263Z,15.10
2022-11-12T17:22:48.216Z,15.10
2022-11-12T17:24:26.620Z,15.00
2022-11-12T17:26:04.108Z,15.00
2022-11-12T17:27:40.126Z,15.10
2022-11-12T17:29:15.046Z,15.10
2022-11-12T17:31:01.341Z,15.10
2022-11-12T17:32:37.596Z,15.00
2022-11-12T17:34:13.527Z,15.10
2022-11-12T17:35:48.882Z,15.00
2022-11-12T17:37:25.156Z,15.00
2022-11-12T17:39:01.394Z,14.90
2022-11-12T17:40:37.036Z,14.90
2022-11-12T17:42:12.921Z,14.90
2022-11-12T17:43:54.275Z,14.60
2022-11-12T17:45:29.139Z,14.60
2022-11-12T17:47:04.527Z,14.40
2022-11-12T17:48:41.043Z,14.40
2022-11-12T17:50:18.590Z,14.40
2022-11-12T17:51:54.442Z,14.20
2022-11-12T17:53:30.571Z,14.20
2022-11-12T17:55:08.831Z,14.20
2022-11-12T17:56:44.609Z,14.10
2022-11-12T17:58:19.699Z,14.10
2022-11-12T17:59:55.881Z,14.00
2022-11-12T18:01:35.581Z,14.00
2022-11-12T18:03:16.327Z,14.00
2022-11-12T18:04:56.902Z,14.00
2022-11-12T18:06:37.941Z,14.00
2022-11-12T18:08:14.509Z,14.00
2022-11-12T18:09:50.497Z,14.00
2022-11-12T18:11:37.863Z,14.00
2022-11-12T18:13:15.297Z,13.90
2022-11-12T18:14:52.163Z,14.00
2022-11-12T18:16:29.480Z,14.00
2022-11-12T18:18:06.024Z,13.90
2022-11-12T18:19:41.994Z,14.00
2022-11-12T18:21:23.635Z,14.00
2022-11-12T18:23:00.109Z,13.90
2022-11-12T18:24:36.566Z,13.80
2022-11-12T18:26:13.833Z,13.80
2022-11-12T18:27:50.673Z,13.80
2022-11-12T18:29:27.169Z,13.70
2022-11-12T18:31:05.674Z,13.60
2022-11-12T18:32:43.857Z,13.60
2022-11-12T18:34:19.140Z,13.80
2022-11-12T18:36:01.990Z,13.70
2022-11-12T18:37:37.552Z,13.70
2022-11-12T18:39:13.325Z,13.70
2022-11-12T18:40:48.606Z,13.70
2022-11-12T18:42:23.973Z,13.70
2022-11-12T18:43:58.514Z,13.70
2022-11-12T18:45:33.997Z,13.70
2022-11-12T18:47:09.760Z,13.70
2022-11-12T18:48:48.109Z,13.70
2022-11-12T18:50:23.403Z,13.70
2022-11-12T18:51:58.338Z,13.70
2022-11-12T18:53:33.778Z,13.60
2022-11-12T18:55:10.309Z,13.60
2022-11-12T18:56:46.344Z,13.60
2022-11-12T18:58:21.188Z,13.60
2022-11-12T18:59:56.852Z,13.50
2022-11-12T19:01:37.093Z,13.50
2022-11-12T19:03:17.936Z,13.40
2022-11-12T19:05:00.082Z,13.40
2022-11-12T19:06:40.696Z,13.40
2022-11-12T19:08:01.474Z,13.40
2022-11-12T19:09:38.056Z,13.40
2022-11-12T19:11:19.746Z,13.40
2022-11-12T19:12:54.799Z,13.40
2022-11-12T19:14:33.180Z,13.30
2022-11-12T19:16:11.825Z,13.20
2022-11-12T19:17:47.742Z,13.20
2022-11-12T19:19:24.259Z,13.10
2022-11-12T19:21:06.984Z,13.10
2022-11-12T19:22:43.071Z,13.10
2022-11-12T19:24:19.173Z,13.20
2022-11-12T19:25:55.086Z,13.20
2022-11-12T19:27:30.949Z,13.20
2022-11-12T19:29:06.375Z,13.30
2022-11-12T19:30:41.616Z,13.40
2022-11-12T19:32:16.589Z,13.50
2022-11-12T19:33:52.262Z,13.50
2022-11-12T19:35:26.826Z,13.40
2022-11-12T19:37:31.925Z,13.30
2022-11-12T19:39:00.288Z,13.30
2022-11-12T19:40:35.205Z,13.20
2022-11-12T19:42:10.881Z,13.20
2022-11-12T19:43:46.266Z,13.10
2022-11-12T19:45:21.538Z,13.10
2022-11-12T19:46:56.397Z,13.10
2022-11-12T19:48:31.478Z,13.10
2022-11-12T19:50:09.137Z,13.20
2022-11-12T19:51:44.711Z,13.20
2022-11-12T19:53:22.393Z,13.10
2022-11-12T19:54:57.869Z,13.00
2022-11-12T19:56:34.258Z,13.00
2022-11-12T19:58:10.055Z,13.00
2022-11-12T19:59:45.940Z,13.00
2022-11-12T20:01:26.711Z,13.10
2022-11-12T20:03:02.838Z,13.10
2022-11-12T20:04:43.698Z,13.10
2022-11-12T20:06:24.538Z,13.20
2022-11-12T20:07:59.722Z,13.20
2022-11-12T20:09:36.018Z,13.10
2022-11-12T20:11:16.531Z,13.10
2022-11-12T20:12:52.231Z,13.10
2022-11-12T20:14:28.102Z,12.90
2022-11-12T20:16:07.189Z,12.60
2022-11-12T20:17:42.875Z,12.40
2022-11-12T20:19:19.021Z,12.50
2022-11-12T20:20:57.337Z,12.50
2022-11-12T20:22:33.317Z,12.50
2022-11-12T20:24:10.183Z,12.50
2022-11-12T20:25:47.318Z,12.60
2022-11-12T20:27:22.994Z,12.70
2022-11-12T20:28:58.659Z,12.80
2022-11-12T20:30:34.267Z,12.70
2022-11-12T20:32:09.799Z,12.80
2022-11-12T20:33:45.516Z,12.80
2022-11-12T20:35:22.564Z,12.80
2022-11-12T20:36:57.573Z,12.80
2022-11-12T20:38:35.833Z,12.70
2022-11-12T20:40:11.795Z,12.60
2022-11-12T20:41:48.738Z,12.50
2022-11-12T20:43:28.990Z,12.20
2022-11-12T20:45:05.679Z,12.00
2022-11-12T20:46:41.795Z,11.90
2022-11-12T20:48:17.444Z,12.00
2022-11-12T20:49:52.955Z,12.00
2022-11-12T20:51:33.366Z,12.00
2022-11-12T20:53:09.304Z,12.10
2022-11-12T20:54:44.818Z,12.20
2022-11-12T20:56:24.385Z,12.20
2022-11-12T20:58:01.774Z,12.10
2022-11-12T20:59:37.047Z,12.10
2022-11-12T21:01:20.930Z,12.20
2022-11-12T21:02:56.030Z,12.30
2022-11-12T21:04:36.784Z,12.30
2022-11-12T21:06:20.896Z,12.30
2022-11-12T21:07:56.364Z,12.40
2022-11-12T21:09:32.036Z,12.40
2022-11-12T21:11:14.598Z,12.30
2022-11-12T21:12:49.764Z,12.30
2022-11-12T21:14:26.232Z,12.20
2022-11-12T21:16:02.031Z,12.30
2022-11-12T21:17:38.374Z,12.30
2022-11-12T21:19:13.781Z,12.20
2022-11-12T21:20:49.419Z,12.20
2022-11-12T21:22:25.113Z,12.20
2022-11-12T21:24:04.646Z,12.20
2022-11-12T21:25:40.839Z,12.10
2022-11-12T21:27:16.366Z,12.10
2022-11-12T21:28:54.383Z,11.90
2022-11-12T21:30:31.567Z,11.90